createdAt,value
2018-12-01T00:00:27.058Z,0.00
2018-12-01T00:01:27.039Z,0.00
2018-12-01T00:02:27.028Z,0.00
2018-12-01T00:03:27.024Z,0.00
2018-12-01T00:04:27.005Z,0.00
2018-12-01T00:05:27.019Z,0.00
2018-12-01T00:06:26.995Z,0.00
2018-12-01T00:07:26.972Z,0.00
2018-12-01T00:08:26.962Z,0.00
2018-12-01T00:09:26.953Z,0.00
2018-12-01T00:10:26.967Z,0.00
2018-12-01T00:11:26.942Z,0.00
2018-12-01T00:12:26.933Z,0.00
2018-12-01T00:13:26.915Z,0.00
2018-12-01T00:14:26.904Z,0.00
2018-12-01T00:15:26.917Z,0.00
2018-12-01T00:16:26.882Z,0.00
2018-12-01T00:17:26.876Z,0.00
2018-12-01T00:18:26.857Z,0.00
2018-12-01T00:19:26.847Z,0.00
2018-12-01T00:20:26.841Z,0.00
2018-12-01T00:21:26.844Z,0.00
2018-12-01T00:22:26.819Z,0.00
2018-12-01T00:23:26.815Z,0.00
2018-12-01T00:24:26.808Z,0.00
2018-12-01T00:25:26.820Z,0.00
2018-12-01T00:26:26.778Z,0.00
2018-12-01T00:27:26.767Z,0.00
2018-12-01T00:28:26.751Z,0.00
2018-12-01T00:29:26.754Z,0.00
2018-12-01T00:30:26.730Z,0.00
2018-12-01T00:31:26.765Z,0.00
2018-12-01T00:32:26.715Z,0.00
2018-12-01T00:33:26.700Z,0.00
2018-12-01T00:34:26.690Z,0.00
2018-12-01T00:35:26.688Z,0.00
2018-12-01T00:36:26.671Z,0.00
2018-12-01T00:37:26.674Z,0.00
2018-12-01T00:38:26.653Z,0.00
2018-12-01T00:39:26.641Z,0.00
2018-12-01T00:40:26.626Z,0.00
2018-12-01T00:41:26.626Z,0.00
2018-12-01T00:42:26.643Z,0.00
2018-12-01T00:43:26.597Z,0.00
2018-12-01T00:44:26.674Z,0.00
2018-12-01T00:45:26.575Z,0.00
2018-12-01T00:46:26.568Z,0.00
2018-12-01T00:47:26.554Z,0.00
2018-12-01T00:48:26.586Z,0.00
2018-12-01T00:49:26.532Z,0.00
2018-12-01T00:50:26.521Z,0.00
2018-12-01T00:51:26.509Z,0.00
2018-12-01T00:52:26.499Z,0.00
2018-12-01T00:53:26.497Z,0.00
2018-12-01T00:54:26.495Z,0.00
2018-12-01T00:55:26.475Z,0.00
2018-12-01T00:56:26.458Z,0.00
2018-12-01T00:57:26.449Z,0.00
2018-12-01T00:58:26.437Z,0.00
2018-12-01T00:59:26.487Z,0.00
2018-12-01T01:00:26.423Z,0.00
2018-12-01T01:01:26.405Z,0.00
2018-12-01T01:02:26.399Z,0.00
2018-12-01T01:03:26.393Z,0.00
2018-12-01T01:04:26.378Z,0.00
2018-12-01T01:05:26.409Z,0.00
2018-12-01T01:06:26.357Z,0.00
2018-12-01T01:07:26.341Z,0.00
2018-12-01T01:08:26.333Z,0.00
2018-12-01T01:09:26.321Z,0.00
2018-12-01T01:10:26.312Z,0.00
2018-12-01T01:11:26.314Z,0.00
2018-12-01T01:12:26.292Z,0.00
2018-12-01T01:13:26.287Z,0.00
2018-12-01T01:14:26.269Z,0.00
2018-12-01T01:15:26.269Z,0.00
2018-12-01T01:16:26.248Z,0.00
2018-12-01T01:17:26.247Z,0.00
2018-12-01T01:18:26.232Z,0.00
2018-12-01T01:19:26.227Z,0.00
2018-12-01T01:20:26.236Z,0.00
2018-12-01T01:21:26.195Z,0.00
2018-12-01T01:22:26.189Z,0.00
2018-12-01T01:23:26.184Z,0.00
2018-12-01T01:24:26.168Z,0.00
2018-12-01T01:25:26.152Z,0.00
2018-12-01T01:26:26.158Z,0.00
2018-12-01T01:27:26.137Z,0.00
2018-12-01T01:28:26.120Z,0.00
2018-12-01T01:29:26.116Z,0.00
2018-12-01T01:30:26.104Z,0.00
2018-12-01T01:31:26.129Z,0.00
2018-12-01T01:32:26.082Z,0.00
2018-12-01T01:33:26.075Z,0.00
2018-12-01T01:34:26.067Z,0.00
2018-12-01T01:35:26.050Z,0.00
2018-12-01T01:36:26.037Z,0.00
2018-12-01T01:37:26.065Z,0.00
2018-12-01T01:38:26.019Z,0.00
2018-12-01T01:39:26.014Z,0.00
2018-12-01T01:40:26.001Z,0.00
2018-12-01T01:41:25.992Z,0.00
2018-12-01T01:42:25.978Z,0.00
2018-12-01T01:43:25.978Z,0.00
2018-12-01T01:44:25.958Z,0.00
2018-12-01T01:45:25.954Z,0.00
2018-12-01T01:46:25.933Z,0.00
2018-12-01T01:47:25.926Z,0.00
2018-12-01T01:48:25.920Z,0.00
2018-12-01T01:49:25.903Z,0.00
2018-12-01T01:50:25.888Z,0.00
2018-12-01T01:51:25.897Z,0.00
2018-12-01T01:52:25.873Z,0.00
2018-12-01T01:53:25.869Z,0.00
2018-12-01T01:54:25.849Z,0.00
2018-12-01T01:55:25.840Z,0.00
2018-12-01T01:56:25.839Z,0.00
2018-12-01T01:57:25.870Z,0.00
2018-12-01T01:58:25.809Z,0.00
2018-12-01T01:59:25.805Z,0.00
2018-12-01T02:00:25.788Z,0.00
2018-12-01T02:01:25.781Z,0.00
2018-12-01T02:02:25.769Z,0.00
2018-12-01T02:03:25.767Z,0.00
2018-12-01T02:04:25.747Z,0.00
2018-12-01T02:05:25.745Z,0.00
2018-12-01T02:06:25.720Z,0.00
2018-12-01T02:07:25.717Z,0.00
2018-12-01T02:08:25.710Z,0.00
2018-12-01T02:09:25.705Z,0.00
2018-12-01T02:10:25.686Z,0.00
2018-12-01T02:11:25.666Z,0.00
2018-12-01T02:12:25.656Z,0.00
2018-12-01T02:13:25.661Z,0.00
2018-12-01T02:14:25.635Z,0.00
2018-12-01T02:15:25.647Z,0.00
2018-12-01T02:16:25.623Z,0.00
2018-12-01T02:17:25.622Z,0.00
2018-12-01T02:18:25.592Z,0.00
2018-12-01T02:19:25.588Z,0.00
2018-12-01T02:20:25.590Z,0.00
2018-12-01T02:21:25.567Z,0.00
2018-12-01T02:22:25.559Z,0.00
2018-12-01T02:23:25.553Z,0.00
2018-12-01T02:24:25.534Z,0.00
2018-12-01T02:25:25.530Z,0.00
2018-12-01T02:26:25.515Z,0.00
2018-12-01T02:27:25.503Z,0.00
2018-12-01T02:28:25.487Z,0.00
2018-12-01T02:29:25.482Z,0.00
2018-12-01T02:30:25.485Z,0.00
2018-12-01T02:31:25.466Z,0.00
2018-12-01T02:32:25.447Z,0.00
2018-12-01T02:33:25.434Z,0.00
2018-12-01T02:34:25.435Z,0.00
2018-12-01T02:35:25.454Z,0.00
2018-12-01T02:36:25.408Z,0.00
2018-12-01T02:37:25.402Z,0.00
2018-12-01T02:38:25.386Z,0.00
2018-12-01T02:39:25.375Z,0.00
2018-12-01T02:40:25.367Z,0.00
2018-12-01T02:41:25.364Z,0.00
2018-12-01T02:42:25.341Z,0.00
2018-12-01T02:43:25.335Z,0.00
2018-12-01T02:44:25.318Z,0.00
2018-12-01T02:45:25.318Z,0.00
2018-12-01T02:46:25.315Z,0.00
2018-12-01T02:47:25.292Z,0.00
2018-12-01T02:48:25.278Z,0.00
2018-12-01T02:49:25.271Z,0.00
2018-12-01T02:50:25.262Z,0.00
2018-12-01T02:51:25.286Z,0.00
2018-12-01T02:52:25.234Z,0.00
2018-12-01T02:53:25.225Z,0.00
2018-12-01T02:54:25.217Z,0.00
2018-12-01T02:55:25.207Z,0.00
2018-12-01T02:56:25.199Z,0.00
2018-12-01T02:57:25.195Z,0.00
2018-12-01T02:58:25.176Z,0.00
2018-12-01T02:59:25.179Z,0.00
2018-12-01T03:00:25.156Z,0.00
2018-12-01T03:01:25.144Z,0.00
2018-12-01T03:02:25.128Z,0.00
2018-12-01T03:03:25.135Z,0.00
2018-12-01T03:04:25.111Z,0.00
2018-12-01T03:05:25.103Z,0.00
2018-12-01T03:06:25.135Z,0.00
2018-12-01T03:07:25.080Z,0.00
2018-12-01T03:08:25.066Z,0.00
2018-12-01T03:09:25.060Z,0.00
2018-12-01T03:10:25.049Z,0.00
2018-12-01T03:11:25.033Z,0.00
2018-12-01T03:12:25.040Z,0.00
2018-12-01T03:13:25.013Z,0.00
2018-12-01T03:14:25.006Z,0.00
2018-12-01T03:15:24.996Z,0.00
2018-12-01T03:16:24.985Z,0.00
2018-12-01T03:17:24.992Z,0.00
2018-12-01T03:18:24.965Z,0.00
2018-12-01T03:19:24.953Z,0.00
2018-12-01T03:20:24.944Z,0.00
2018-12-01T03:21:24.948Z,0.00
2018-12-01T03:22:24.920Z,0.00
2018-12-01T03:23:24.923Z,0.00
2018-12-01T03:24:24.897Z,0.00
2018-12-01T03:25:24.890Z,0.00
2018-12-01T03:26:24.879Z,0.00
2018-12-01T03:27:24.876Z,0.00
2018-12-01T03:28:24.873Z,0.00
2018-12-01T03:29:24.853Z,0.00
2018-12-01T03:30:24.843Z,0.00
2018-12-01T03:31:24.836Z,0.00
2018-12-01T03:32:24.817Z,0.00
2018-12-01T03:33:24.805Z,0.00
2018-12-01T03:34:24.804Z,0.00
2018-12-01T03:35:24.800Z,0.00
2018-12-01T03:36:24.777Z,0.00
2018-12-01T03:37:24.764Z,0.00
2018-12-01T03:38:24.766Z,0.00
2018-12-01T03:39:24.744Z,0.00
2018-12-01T03:40:24.767Z,0.00
2018-12-01T03:41:24.730Z,0.00
2018-12-01T03:42:24.718Z,0.00
2018-12-01T03:43:24.697Z,0.00
2018-12-01T03:44:24.687Z,0.00
2018-12-01T03:45:24.681Z,0.00
2018-12-01T03:46:38.734Z,0.00
2018-12-01T03:47:24.659Z,0.00
2018-12-01T03:48:24.642Z,0.00
2018-12-01T03:49:24.638Z,0.00
2018-12-01T03:50:24.662Z,0.00
2018-12-01T03:51:24.617Z,0.00
2018-12-01T03:52:24.608Z,0.00
2018-12-01T03:53:24.596Z,0.00
2018-12-01T03:54:24.581Z,0.00
2018-12-01T03:55:24.570Z,0.00
2018-12-01T03:56:24.589Z,0.00
2018-12-01T03:57:24.554Z,0.00
2018-12-01T03:58:24.561Z,0.00
2018-12-01T03:59:24.532Z,0.00
2018-12-01T04:00:24.524Z,0.00
2018-12-01T04:01:24.523Z,0.00
2018-12-01T04:02:24.503Z,0.00
2018-12-01T04:03:24.490Z,0.00
2018-12-01T04:04:24.487Z,0.00
2018-12-01T04:05:24.470Z,0.00
2018-12-01T04:06:24.502Z,0.00
2018-12-01T04:07:24.446Z,0.00
2018-12-01T04:08:24.443Z,0.00
2018-12-01T04:09:24.433Z,0.00
2018-12-01T04:10:24.419Z,0.00
2018-12-01T04:11:24.409Z,0.00
2018-12-01T04:12:24.434Z,0.00
2018-12-01T04:13:24.387Z,0.00
2018-12-01T04:14:24.374Z,0.00
2018-12-01T04:15:24.372Z,0.00
2018-12-01T04:16:24.356Z,0.00
2018-12-01T04:17:24.347Z,0.00
2018-12-01T04:18:24.349Z,0.00
2018-12-01T04:19:24.319Z,0.00
2018-12-01T04:20:24.318Z,0.00
2018-12-01T04:21:24.304Z,0.00
2018-12-01T04:22:24.328Z,0.00
2018-12-01T04:23:24.295Z,0.00
2018-12-01T04:24:24.273Z,0.00
2018-12-01T04:25:24.258Z,0.00
2018-12-01T04:26:24.249Z,0.00
2018-12-01T04:27:24.245Z,0.00
2018-12-01T04:28:24.246Z,0.00
2018-12-01T04:29:24.222Z,0.00
2018-12-01T04:30:24.205Z,0.00
2018-12-01T04:31:24.204Z,0.00
2018-12-01T04:32:24.189Z,0.00
2018-12-01T04:33:24.213Z,0.00
2018-12-01T04:34:24.179Z,0.00
2018-12-01T04:35:24.153Z,0.00
2018-12-01T04:36:24.148Z,0.00
2018-12-01T04:37:24.133Z,0.00
2018-12-01T04:38:24.132Z,0.00
2018-12-01T04:39:24.122Z,0.00
2018-12-01T04:40:24.109Z,0.00
2018-12-01T04:41:24.109Z,0.00
2018-12-01T04:42:24.081Z,0.00
2018-12-01T04:43:24.081Z,0.00
2018-12-01T04:44:24.064Z,0.00
2018-12-01T04:45:24.050Z,0.00
2018-12-01T04:46:24.043Z,0.00
2018-12-01T04:47:24.028Z,0.00
2018-12-01T04:48:24.023Z,0.00
2018-12-01T04:49:24.025Z,0.00
2018-12-01T04:50:24.002Z,0.00
2018-12-01T04:51:24.005Z,0.00
2018-12-01T04:52:23.988Z,0.00
2018-12-01T04:53:23.975Z,0.00
2018-12-01T04:54:23.983Z,0.00
2018-12-01T04:55:23.953Z,0.00
2018-12-01T04:56:23.938Z,0.00
2018-12-01T04:57:23.927Z,0.00
2018-12-01T04:58:23.934Z,0.00
2018-12-01T04:59:23.904Z,0.00
2018-12-01T05:00:23.903Z,0.00
2018-12-01T05:01:23.883Z,0.00
2018-12-01T05:02:23.883Z,0.00
2018-12-01T05:03:23.879Z,0.00
2018-12-01T05:04:23.856Z,0.00
2018-12-01T05:05:23.850Z,0.00
2018-12-01T05:06:23.830Z,0.00
2018-12-01T05:07:23.824Z,0.00
2018-12-01T05:08:23.855Z,0.00
2018-12-01T05:09:23.801Z,0.00
2018-12-01T05:10:23.795Z,0.00
2018-12-01T05:11:23.783Z,0.00
2018-12-01T05:12:23.769Z,0.00
2018-12-01T05:13:23.760Z,0.00
2018-12-01T05:14:23.763Z,0.00
2018-12-01T05:15:23.765Z,0.00
2018-12-01T05:16:23.739Z,0.00
2018-12-01T05:17:23.717Z,0.00
2018-12-01T05:18:23.710Z,0.00
2018-12-01T05:19:23.697Z,0.00
2018-12-01T05:20:23.687Z,0.00
2018-12-01T05:21:23.689Z,0.00
2018-12-01T05:22:23.669Z,0.00
2018-12-01T05:23:23.659Z,0.00
2018-12-01T05:24:23.646Z,0.00
2018-12-01T05:25:23.645Z,0.00
2018-12-01T05:26:23.634Z,0.00
2018-12-01T05:27:23.615Z,0.00
2018-12-01T05:28:23.619Z,0.00
2018-12-01T05:29:23.592Z,0.00
2018-12-01T05:30:23.586Z,0.00
2018-12-01T05:31:23.618Z,0.00
2018-12-01T05:32:23.565Z,0.00
2018-12-01T05:33:23.549Z,0.00
2018-12-01T05:34:23.546Z,0.00
2018-12-01T05:35:23.534Z,0.00
2018-12-01T05:36:23.530Z,0.00
2018-12-01T05:37:23.515Z,0.00
2018-12-01T05:38:23.512Z,0.00
2018-12-01T05:39:23.491Z,0.00
2018-12-01T05:40:23.482Z,0.00
2018-12-01T05:41:23.465Z,0.00
2018-12-01T05:42:23.477Z,0.00
2018-12-01T05:43:23.456Z,0.00
2018-12-01T05:44:23.440Z,0.00
2018-12-01T05:45:23.431Z,0.00
2018-12-01T05:46:23.421Z,0.00
2018-12-01T05:47:23.413Z,0.00
2018-12-01T05:48:23.432Z,0.00
2018-12-01T05:49:23.396Z,0.00
2018-12-01T05:50:23.372Z,0.00
2018-12-01T05:51:23.361Z,0.00
2018-12-01T05:52:23.359Z,0.00
2018-12-01T05:53:23.341Z,0.00
2018-12-01T05:54:23.346Z,0.00
2018-12-01T05:55:23.322Z,0.00
2018-12-01T05:56:23.358Z,0.00
2018-12-01T05:57:23.306Z,0.00
2018-12-01T05:58:23.294Z,0.00
2018-12-01T05:59:23.297Z,0.00
2018-12-01T06:00:23.277Z,0.00
2018-12-01T06:01:23.263Z,0.00
2018-12-01T06:02:23.296Z,0.00
2018-12-01T06:03:23.241Z,0.00
2018-12-01T06:04:23.265Z,0.00
2018-12-01T06:05:23.222Z,0.00
2018-12-01T06:06:23.210Z,0.00
2018-12-01T06:07:23.193Z,0.00
2018-12-01T06:08:23.185Z,0.00
2018-12-01T06:09:23.173Z,0.00
2018-12-01T06:10:23.235Z,0.00
2018-12-01T06:11:23.159Z,0.00
2018-12-01T06:12:23.152Z,0.00
2018-12-01T06:13:23.131Z,0.00
2018-12-01T06:14:23.129Z,0.00
2018-12-01T06:15:23.116Z,0.00
2018-12-01T06:16:23.122Z,0.00
2018-12-01T06:17:23.091Z,0.00
2018-12-01T06:18:23.085Z,0.00
2018-12-01T06:19:23.069Z,0.00
2018-12-01T06:20:23.070Z,0.00
2018-12-01T06:21:23.069Z,0.00
2018-12-01T06:22:23.046Z,0.00
2018-12-01T06:23:23.031Z,0.00
2018-12-01T06:24:23.015Z,0.00
2018-12-01T06:25:23.012Z,0.00
2018-12-01T06:26:23.006Z,0.00
2018-12-01T06:27:22.991Z,4.00
2018-12-01T06:28:22.978Z,4.00
2018-12-01T06:29:22.971Z,4.00
2018-12-01T06:30:22.953Z,4.00
2018-12-01T06:31:22.960Z,4.00
2018-12-01T06:32:22.932Z,4.00
2018-12-01T06:33:22.932Z,4.00
2018-12-01T06:34:22.930Z,4.00
2018-12-01T06:35:22.902Z,4.00
2018-12-01T06:36:22.891Z,8.00
2018-12-01T06:37:22.893Z,8.00
2018-12-01T06:38:22.875Z,12.00
2018-12-01T06:39:22.859Z,12.00
2018-12-01T06:40:22.873Z,12.00
2018-12-01T06:41:22.845Z,16.00
2018-12-01T06:42:22.829Z,12.00
2018-12-01T06:43:22.836Z,16.00
2018-12-01T06:44:22.818Z,20.00
2018-12-01T06:45:22.797Z,24.00
2018-12-01T06:46:22.794Z,28.00
2018-12-01T06:47:22.781Z,28.00
2018-12-01T06:48:22.778Z,28.00
2018-12-01T06:49:22.756Z,32.00
2018-12-01T06:50:22.748Z,32.00
2018-12-01T06:51:22.740Z,32.00
2018-12-01T06:52:22.726Z,32.00
2018-12-01T06:53:22.752Z,32.00
2018-12-01T06:54:22.711Z,32.00
2018-12-01T06:55:22.709Z,28.00
2018-12-01T06:56:22.688Z,28.00
2018-12-01T06:57:22.673Z,28.00
2018-12-01T06:58:22.669Z,32.00
2018-12-01T06:59:22.684Z,36.00
2018-12-01T07:00:22.650Z,36.00
2018-12-01T07:01:22.634Z,40.00
2018-12-01T07:02:22.622Z,48.00
2018-12-01T07:03:22.611Z,48.00
2018-12-01T07:04:22.603Z,48.00
2018-12-01T07:05:22.613Z,48.00
2018-12-01T07:06:22.592Z,48.00
2018-12-01T07:07:22.569Z,52.00
2018-12-01T07:08:22.557Z,56.00
2018-12-01T07:09:22.557Z,64.00
2018-12-01T07:10:22.585Z,68.00
2018-12-01T07:11:22.551Z,72.00
2018-12-01T07:12:22.541Z,72.00
2018-12-01T07:13:22.513Z,68.00
2018-12-01T07:14:22.501Z,72.00
2018-12-01T07:15:22.493Z,72.00
2018-12-01T07:16:22.517Z,80.00
2018-12-01T07:17:22.498Z,84.00
2018-12-01T07:18:22.454Z,88.00
2018-12-01T07:19:22.444Z,96.00
2018-12-01T07:20:22.440Z,104.00
2018-12-01T07:21:22.428Z,116.00
2018-12-01T07:22:22.425Z,128.00
2018-12-01T07:23:22.415Z,140.00
2018-12-01T07:24:22.394Z,152.00
2018-12-01T07:25:22.388Z,160.00
2018-12-01T07:26:22.377Z,164.00
2018-12-01T07:27:22.377Z,180.00
2018-12-01T07:28:22.358Z,208.00
2018-12-01T07:29:22.345Z,236.00
2018-12-01T07:30:22.370Z,256.00
2018-12-01T07:31:22.319Z,276.00
2018-12-01T07:32:22.328Z,284.00
2018-12-01T07:33:22.305Z,288.00
2018-12-01T07:34:22.300Z,300.00
2018-12-01T07:35:22.290Z,280.00
2018-12-01T07:36:22.280Z,276.00
2018-12-01T07:37:22.298Z,280.00
2018-12-01T07:38:22.254Z,292.00
2018-12-01T07:39:22.237Z,304.00
2018-12-01T07:40:22.237Z,312.00
2018-12-01T07:41:22.215Z,308.00
2018-12-01T07:42:22.205Z,316.00
2018-12-01T07:43:22.211Z,320.00
2018-12-01T07:44:22.212Z,324.00
2018-12-01T07:45:22.180Z,316.00
2018-12-01T07:46:22.163Z,336.00
2018-12-01T07:47:22.170Z,360.00
2018-12-01T07:48:22.159Z,384.00
2018-12-01T07:49:22.131Z,412.00
2018-12-01T07:50:22.125Z,424.00
2018-12-01T07:51:22.119Z,436.00
2018-12-01T07:52:22.102Z,468.00
2018-12-01T07:53:22.119Z,484.00
2018-12-01T07:54:22.079Z,456.00
2018-12-01T07:55:22.082Z,448.00
2018-12-01T07:56:22.061Z,456.00
2018-12-01T07:57:22.055Z,464.00
2018-12-01T07:58:22.077Z,488.00
2018-12-01T07:59:22.028Z,520.00
2018-12-01T08:00:22.019Z,516.00
2018-12-01T08:01:22.010Z,508.00
2018-12-01T08:02:22.019Z,500.00
2018-12-01T08:03:22.011Z,492.00
2018-12-01T08:04:22.036Z,532.00
2018-12-01T08:05:21.967Z,572.00
2018-12-01T08:06:21.957Z,560.00
2018-12-01T08:07:21.951Z,536.00
2018-12-01T08:08:21.937Z,548.00
2018-12-01T08:09:21.935Z,524.00
2018-12-01T08:10:21.931Z,576.00
2018-12-01T08:11:21.917Z,696.00
2018-12-01T08:12:21.900Z,788.00
2018-12-01T08:13:21.884Z,824.00
2018-12-01T08:14:21.885Z,844.00
2018-12-01T08:15:21.929Z,824.00
2018-12-01T08:16:21.852Z,804.00
2018-12-01T08:17:21.861Z,800.00
2018-12-01T08:18:21.835Z,804.00
2018-12-01T08:19:21.826Z,888.00
2018-12-01T08:20:21.811Z,1020.00
2018-12-01T08:21:21.851Z,1024.00
2018-12-01T08:22:21.793Z,1020.00
2018-12-01T08:23:21.783Z,1036.00
2018-12-01T08:24:21.768Z,1084.00
2018-12-01T08:25:21.765Z,1128.00
2018-12-01T08:26:21.757Z,1208.00
2018-12-01T08:27:21.746Z,1236.00
2018-12-01T08:28:21.735Z,1252.00
2018-12-01T08:29:21.715Z,1236.00
2018-12-01T08:30:21.715Z,1280.00
2018-12-01T08:31:21.696Z,1468.00
2018-12-01T08:32:21.727Z,1556.00
2018-12-01T08:33:21.673Z,1588.00
2018-12-01T08:34:21.674Z,1440.00
2018-12-01T08:35:21.652Z,1364.00
2018-12-01T08:36:21.651Z,1524.00
2018-12-01T08:37:21.640Z,1680.00
2018-12-01T08:38:21.643Z,1688.00
2018-12-01T08:39:21.607Z,1692.00
2018-12-01T08:40:21.604Z,1552.00
2018-12-01T08:41:21.589Z,1548.00
2018-12-01T08:42:21.581Z,1452.00
2018-12-01T08:43:21.578Z,1408.00
2018-12-01T08:44:21.558Z,1412.00
2018-12-01T08:45:21.552Z,1536.00
2018-12-01T08:46:21.561Z,1784.00
2018-12-01T08:47:21.543Z,1896.00
2018-12-01T08:48:21.537Z,1852.00
2018-12-01T08:49:21.510Z,1860.00
2018-12-01T08:50:21.514Z,1908.00
2018-12-01T08:51:21.498Z,1896.00
2018-12-01T08:52:21.486Z,2184.00
2018-12-01T08:53:21.514Z,2244.00
2018-12-01T08:54:21.449Z,2440.00
2018-12-01T08:55:21.441Z,2548.00
2018-12-01T08:56:21.429Z,2688.00
2018-12-01T08:57:21.418Z,2816.00
2018-12-01T08:58:21.412Z,2604.00
2018-12-01T08:59:21.427Z,2488.00
2018-12-01T09:00:21.386Z,2148.00
2018-12-01T09:01:21.384Z,1720.00
2018-12-01T09:02:21.374Z,1668.00
2018-12-01T09:03:21.360Z,1780.00
2018-12-01T09:04:21.350Z,2028.00
2018-12-01T09:05:21.364Z,2468.00
2018-12-01T09:06:21.324Z,2896.00
2018-12-01T09:07:21.318Z,3260.00
2018-12-01T09:08:21.312Z,3376.00
2018-12-01T09:09:21.298Z,3496.00
2018-12-01T09:10:21.296Z,3856.00
2018-12-01T09:11:21.275Z,4112.00
2018-12-01T09:12:21.267Z,4500.00
2018-12-01T09:13:21.256Z,4416.00
2018-12-01T09:14:21.248Z,7668.00
2018-12-01T09:15:21.251Z,6364.00
2018-12-01T09:16:21.225Z,5684.00
2018-12-01T09:17:21.210Z,7752.00
2018-12-01T09:18:21.198Z,7560.00
2018-12-01T09:19:21.195Z,6140.00
2018-12-01T09:20:21.180Z,5740.00
2018-12-01T09:21:21.189Z,5384.00
2018-12-01T09:22:21.159Z,5564.00
2018-12-01T09:23:21.150Z,6888.00
2018-12-01T09:24:21.140Z,7676.00
2018-12-01T09:25:21.130Z,6844.00
2018-12-01T09:26:21.717Z,6204.00
2018-12-01T09:27:22.680Z,7356.00
2018-12-01T09:28:21.096Z,4792.00
2018-12-01T09:29:21.084Z,2620.00
2018-12-01T09:30:21.113Z,2788.00
2018-12-01T09:31:21.067Z,3196.00
2018-12-01T09:32:21.058Z,3524.00
2018-12-01T09:33:21.040Z,3364.00
2018-12-01T09:34:21.035Z,3032.00
2018-12-01T09:35:21.023Z,2788.00
2018-12-01T09:36:21.014Z,2888.00
2018-12-01T09:37:21.041Z,2760.00
2018-12-01T09:38:20.991Z,2780.00
2018-12-01T09:39:20.985Z,2632.00
2018-12-01T09:40:20.968Z,2608.00
2018-12-01T09:41:20.955Z,2680.00
2018-12-01T09:42:24.803Z,2744.00
2018-12-01T09:43:20.946Z,2772.00
2018-12-01T09:44:20.928Z,2796.00
2018-12-01T09:45:20.916Z,2948.00
2018-12-01T09:46:20.907Z,3116.00
2018-12-01T09:47:20.899Z,3284.00
2018-12-01T09:48:20.933Z,3524.00
2018-12-01T09:49:20.891Z,3516.00
2018-12-01T09:50:20.865Z,3540.00
2018-12-01T09:51:20.851Z,3692.00
2018-12-01T09:52:20.854Z,3760.00
2018-12-01T09:53:20.833Z,3676.00
2018-12-01T09:54:20.841Z,3440.00
2018-12-01T09:55:20.814Z,3324.00
2018-12-01T09:56:20.818Z,3376.00
2018-12-01T09:57:20.793Z,3340.00
2018-12-01T09:58:20.781Z,3428.00
2018-12-01T09:59:20.776Z,4112.00
2018-12-01T10:00:20.764Z,3884.00
2018-12-01T10:01:20.755Z,4120.00
2018-12-01T10:02:20.735Z,4428.00
2018-12-01T10:03:20.728Z,4616.00
2018-12-01T10:04:20.726Z,4280.00
2018-12-01T10:05:20.704Z,4404.00
2018-12-01T10:06:20.747Z,3400.00
2018-12-01T10:07:20.681Z,3396.00
2018-12-01T10:08:20.677Z,3228.00
2018-12-01T10:09:20.660Z,3192.00
2018-12-01T10:10:20.654Z,3388.00
2018-12-01T10:11:20.643Z,3412.00
2018-12-01T10:12:20.644Z,3424.00
2018-12-01T10:13:20.628Z,3396.00
2018-12-01T10:14:20.619Z,3292.00
2018-12-01T10:15:20.600Z,3364.00
2018-12-01T10:16:20.593Z,3500.00
2018-12-01T10:17:20.583Z,3812.00
2018-12-01T10:18:20.562Z,3868.00
2018-12-01T10:19:20.557Z,4364.00
2018-12-01T10:20:20.556Z,3948.00
2018-12-01T10:21:20.538Z,4152.00
2018-12-01T10:22:20.537Z,4080.00
2018-12-01T10:23:20.516Z,4092.00
2018-12-01T10:24:20.506Z,4240.00
2018-12-01T10:25:20.493Z,4496.00
2018-12-01T10:26:20.493Z,4060.00
2018-12-01T10:27:20.489Z,4208.00
2018-12-01T10:28:20.455Z,4532.00
2018-12-01T10:29:20.450Z,5580.00
2018-12-01T10:30:20.439Z,4516.00
2018-12-01T10:31:20.424Z,4708.00
2018-12-01T10:32:20.422Z,5112.00
2018-12-01T10:33:20.409Z,4432.00
2018-12-01T10:34:20.407Z,4308.00
2018-12-01T10:35:20.382Z,3980.00
2018-12-01T10:36:20.371Z,3676.00
2018-12-01T10:37:20.361Z,3592.00
2018-12-01T10:38:20.353Z,3620.00
2018-12-01T10:39:20.356Z,3888.00
2018-12-01T10:40:20.342Z,3744.00
2018-12-01T10:41:20.319Z,3700.00
2018-12-01T10:42:20.323Z,3668.00
2018-12-01T10:43:20.304Z,3744.00
2018-12-01T10:44:20.307Z,3864.00
2018-12-01T10:45:20.284Z,3880.00
2018-12-01T10:46:20.275Z,3852.00
2018-12-01T10:47:20.254Z,3868.00
2018-12-01T10:48:20.247Z,4024.00
2018-12-01T10:49:20.237Z,4224.00
2018-12-01T10:50:20.234Z,4320.00
2018-12-01T10:51:20.213Z,4220.00
2018-12-01T10:52:20.201Z,4164.00
2018-12-01T10:53:20.194Z,4192.00
2018-12-01T10:54:20.183Z,4272.00
2018-12-01T10:55:20.188Z,4296.00
2018-12-01T10:56:20.168Z,4456.00
2018-12-01T10:57:20.149Z,4236.00
2018-12-01T10:58:20.137Z,3776.00
2018-12-01T10:59:20.131Z,3684.00
2018-12-01T11:00:20.112Z,4040.00
2018-12-01T11:01:20.131Z,4400.00
2018-12-01T11:02:20.094Z,4460.00
2018-12-01T11:03:20.085Z,4108.00
2018-12-01T11:04:20.072Z,3908.00
2018-12-01T11:05:20.061Z,3920.00
2018-12-01T11:06:20.062Z,4112.00
2018-12-01T11:07:20.046Z,4280.00
2018-12-01T11:08:20.037Z,4396.00
2018-12-01T11:09:20.032Z,4268.00
2018-12-01T11:10:20.016Z,4240.00
2018-12-01T11:11:20.045Z,4436.00
2018-12-01T11:12:19.991Z,4408.00
2018-12-01T11:13:19.983Z,4448.00
2018-12-01T11:14:20.013Z,4280.00
2018-12-01T11:15:19.962Z,4116.00
2018-12-01T11:16:20.733Z,4020.00
2018-12-01T11:17:19.994Z,4044.00
2018-12-01T11:18:19.926Z,4300.00
2018-12-01T11:19:19.989Z,4428.00
2018-12-01T11:20:19.901Z,4200.00
2018-12-01T11:21:19.897Z,4376.00
2018-12-01T11:22:19.948Z,4708.00
2018-12-01T11:23:19.924Z,4848.00
2018-12-01T11:24:19.862Z,5220.00
2018-12-01T11:25:19.853Z,5536.00
2018-12-01T11:26:19.882Z,5648.00
2018-12-01T11:27:19.830Z,6032.00
2018-12-01T11:28:19.829Z,5948.00
2018-12-01T11:29:19.821Z,5708.00
2018-12-01T11:30:19.798Z,5060.00
2018-12-01T11:31:19.791Z,4036.00
2018-12-01T11:32:19.778Z,3276.00
2018-12-01T11:33:19.765Z,3072.00
2018-12-01T11:34:19.759Z,3236.00
2018-12-01T11:35:19.747Z,3740.00
2018-12-01T11:36:19.730Z,3900.00
2018-12-01T11:37:19.721Z,3748.00
2018-12-01T11:38:19.713Z,3500.00
2018-12-01T11:39:19.706Z,3544.00
2018-12-01T11:40:19.693Z,3980.00
2018-12-01T11:41:19.674Z,4608.00
2018-12-01T11:42:20.085Z,5864.00
2018-12-01T11:43:19.766Z,4332.00
2018-12-01T11:44:19.647Z,4188.00
2018-12-01T11:45:19.683Z,4556.00
2018-12-01T11:46:19.717Z,4904.00
2018-12-01T11:47:19.615Z,4772.00
2018-12-01T11:48:19.606Z,5264.00
2018-12-01T11:49:19.597Z,5424.00
2018-12-01T11:50:19.585Z,4920.00
2018-12-01T11:51:19.584Z,4220.00
2018-12-01T11:52:19.707Z,3096.00
2018-12-01T11:53:19.548Z,2528.00
2018-12-01T11:54:19.547Z,2360.00
2018-12-01T11:55:19.533Z,2232.00
2018-12-01T11:56:19.530Z,2208.00
2018-12-01T11:57:19.503Z,2204.00
2018-12-01T11:58:19.498Z,2168.00
2018-12-01T11:59:19.482Z,2152.00
2018-12-01T12:00:19.485Z,2176.00
2018-12-01T12:01:19.476Z,2272.00
2018-12-01T12:02:19.458Z,2256.00
2018-12-01T12:03:19.456Z,2024.00
2018-12-01T12:04:19.437Z,1828.00
2018-12-01T12:05:19.419Z,1788.00
2018-12-01T12:06:19.407Z,1752.00
2018-12-01T12:07:19.439Z,1856.00
2018-12-01T12:08:19.390Z,2084.00
2018-12-01T12:09:19.384Z,2380.00
2018-12-01T12:10:19.365Z,2648.00
2018-12-01T12:11:19.392Z,2940.00
2018-12-01T12:12:19.350Z,3188.00
2018-12-01T12:13:19.370Z,3272.00
2018-12-01T12:14:19.322Z,3156.00
2018-12-01T12:15:19.316Z,2948.00
2018-12-01T12:16:19.307Z,2756.00
2018-12-01T12:17:19.289Z,2612.00
2018-12-01T12:18:19.279Z,2488.00
2018-12-01T12:19:19.284Z,2364.00
2018-12-01T12:20:19.263Z,2260.00
2018-12-01T12:21:19.246Z,2120.00
2018-12-01T12:22:19.242Z,1984.00
2018-12-01T12:23:19.230Z,1876.00
2018-12-01T12:24:19.230Z,1836.00
2018-12-01T12:25:19.205Z,1880.00
2018-12-01T12:26:19.199Z,1948.00
2018-12-01T12:27:19.235Z,2044.00
2018-12-01T12:28:19.178Z,2076.00
2018-12-01T12:29:19.179Z,2112.00
2018-12-01T12:30:19.152Z,2108.00
2018-12-01T12:31:19.145Z,2072.00
2018-12-01T12:32:19.141Z,2032.00
2018-12-01T12:33:19.121Z,1996.00
2018-12-01T12:34:19.114Z,1952.00
2018-12-01T12:35:19.109Z,1848.00
2018-12-01T12:36:19.089Z,1764.00
2018-12-01T12:37:19.092Z,1704.00
2018-12-01T12:38:19.074Z,1640.00
2018-12-01T12:39:19.058Z,1604.00
2018-12-01T12:40:19.053Z,1544.00
2018-12-01T12:41:19.051Z,1504.00
2018-12-01T12:42:19.328Z,1500.00
2018-12-01T12:43:19.740Z,1496.00
2018-12-01T12:44:19.028Z,1464.00
2018-12-01T12:45:19.001Z,1436.00
2018-12-01T12:46:18.982Z,1436.00